sensor_id;sensor_type;location;lat;lon;timestamp;P1;durP1;ratioP1;P2;durP2;ratioP2
29686;SDS011;16599;47.078;15.536;2022-07-23T00:00:17;9.30;;;8.20;;
29686;SDS011;16599;47.078;15.536;2022-07-23T00:02:44;9.93;;;8.00;;
29686;SDS011;16599;47.078;15.536;2022-07-23T00:05:11;11.27;;;8.27;;
29686;SDS011;16599;47.078;15.536;2022-07-23T00:07:38;9.30;;;8.40;;
29686;SDS011;16599;47.078;15.536;2022-07-23T00:10:07;9.30;;;8.32;;
29686;SDS011;16599;47.078;15.536;2022-07-23T00:12:34;10.50;;;9.10;;
29686;SDS011;16599;47.078;15.536;2022-07-23T00:15:02;11.25;;;8.63;;
29686;SDS011;16599;47.078;15.536;2022-07-23T00:17:30;11.82;;;8.73;;
29686;SDS011;16599;47.078;15.536;2022-07-23T00:19:57;12.93;;;8.65;;
29686;SDS011;16599;47.078;15.536;2022-07-23T00:22:24;11.48;;;8.20;;
29686;SDS011;16599;47.078;15.536;2022-07-23T00:24:51;10.10;;;8.18;;
29686;SDS011;16599;47.078;15.536;2022-07-23T00:27:38;11.65;;;8.38;;
29686;SDS011;16599;47.078;15.536;2022-07-23T00:30:05;9.38;;;8.25;;
29686;SDS011;16599;47.078;15.536;2022-07-23T00:32:44;10.25;;;7.95;;
29686;SDS011;16599;47.078;15.536;2022-07-23T00:35:23;13.45;;;9.77;;
29686;SDS011;16599;47.078;15.536;2022-07-23T00:37:51;13.18;;;8.65;;
29686;SDS011;16599;47.078;15.536;2022-07-23T00:40:19;11.40;;;7.95;;
29686;SDS011;16599;47.078;15.536;2022-07-23T00:42:46;12.20;;;8.57;;
29686;SDS011;16599;47.078;15.536;2022-07-23T00:45:13;13.02;;;8.52;;
29686;SDS011;16599;47.078;15.536;2022-07-23T00:47:40;10.05;;;8.15;;
29686;SDS011;16599;47.078;15.536;2022-07-23T00:50:07;10.07;;;8.20;;
29686;SDS011;16599;47.078;15.536;2022-07-23T00:52:35;11.60;;;8.18;;
29686;SDS011;16599;47.078;15.536;2022-07-23T00:55:04;12.18;;;8.18;;
29686;SDS011;16599;47.078;15.536;2022-07-23T00:57:32;9.20;;;8.05;;
29686;SDS011;16599;47.078;15.536;2022-07-23T00:59:59;16.70;;;8.82;;
29686;SDS011;16599;47.078;15.536;2022-07-23T01:02:27;9.52;;;7.93;;
29686;SDS011;16599;47.078;15.536;2022-07-23T01:04:54;9.80;;;8.48;;
29686;SDS011;16599;47.078;15.536;2022-07-23T01:07:21;12.05;;;8.00;;
29686;SDS011;16599;47.078;15.536;2022-07-23T01:09:48;8.95;;;8.00;;
29686;SDS011;16599;47.078;15.536;2022-07-23T01:12:17;13.75;;;8.80;;
29686;SDS011;16599;47.078;15.536;2022-07-23T01:14:44;12.35;;;8.20;;
29686;SDS011;16599;47.078;15.536;2022-07-23T01:17:10;9.73;;;8.30;;
29686;SDS011;16599;47.078;15.536;2022-07-23T01:19:37;14.98;;;8.38;;
29686;SDS011;16599;47.078;15.536;2022-07-23T01:22:04;8.82;;;7.72;;
29686;SDS011;16599;47.078;15.536;2022-07-23T01:24:31;12.23;;;9.02;;
29686;SDS011;16599;47.078;15.536;2022-07-23T01:26:58;12.18;;;8.70;;
29686;SDS011;16599;47.078;15.536;2022-07-23T01:29:25;12.40;;;8.93;;
29686;SDS011;16599;47.078;15.536;2022-07-23T01:31:52;10.55;;;8.60;;
29686;SDS011;16599;47.078;15.536;2022-07-23T01:34:19;13.07;;;9.32;;
29686;SDS011;16599;47.078;15.536;2022-07-23T01:36:46;12.50;;;9.50;;
29686;SDS011;16599;47.078;15.536;2022-07-23T01:39:13;10.55;;;9.27;;
29686;SDS011;16599;47.078;15.536;2022-07-23T01:41:42;13.93;;;9.25;;
29686;SDS011;16599;47.078;15.536;2022-07-23T01:44:11;10.27;;;8.93;;
29686;SDS011;16599;47.078;15.536;2022-07-23T01:46:38;12.00;;;8.23;;
29686;SDS011;16599;47.078;15.536;2022-07-23T01:49:05;15.23;;;9.07;;
29686;SDS011;16599;47.078;15.536;2022-07-23T01:51:32;11.00;;;8.93;;
29686;SDS011;16599;47.078;15.536;2022-07-23T01:53:59;9.93;;;8.38;;
29686;SDS011;16599;47.078;15.536;2022-07-23T01:56:26;12.73;;;9.00;;
29686;SDS011;16599;47.078;15.536;2022-07-23T01:58:53;10.90;;;8.88;;
29686;SDS011;16599;47.078;15.536;2022-07-23T02:01:20;10.05;;;8.80;;
29686;SDS011;16599;47.078;15.536;2022-07-23T02:03:47;15.68;;;8.93;;
29686;SDS011;16599;47.078;15.536;2022-07-23T02:06:13;13.45;;;8.93;;
29686;SDS011;16599;47.078;15.536;2022-07-23T02:08:40;11.65;;;8.98;;
29686;SDS011;16599;47.078;15.536;2022-07-23T02:11:07;12.80;;;8.65;;
29686;SDS011;16599;47.078;15.536;2022-07-23T02:13:34;9.90;;;8.68;;
29686;SDS011;16599;47.078;15.536;2022-07-23T02:16:01;11.07;;;8.35;;
29686;SDS011;16599;47.078;15.536;2022-07-23T02:18:28;10.55;;;8.65;;
29686;SDS011;16599;47.078;15.536;2022-07-23T02:20:55;9.65;;;8.52;;
29686;SDS011;16599;47.078;15.536;2022-07-23T02:23:22;12.30;;;9.18;;
29686;SDS011;16599;47.078;15.536;2022-07-23T02:25:48;12.50;;;8.98;;
29686;SDS011;16599;47.078;15.536;2022-07-23T02:28:15;16.48;;;9.38;;
29686;SDS011;16599;47.078;15.536;2022-07-23T02:30:42;14.85;;;9.30;;
29686;SDS011;16599;47.078;15.536;2022-07-23T02:33:09;13.48;;;8.65;;
29686;SDS011;16599;47.078;15.536;2022-07-23T02:35:36;12.10;;;8.65;;
29686;SDS011;16599;47.078;15.536;2022-07-23T02:38:03;10.75;;;7.68;;
29686;SDS011;16599;47.078;15.536;2022-07-23T02:40:30;11.00;;;8.65;;
29686;SDS011;16599;47.078;15.536;2022-07-23T02:42:56;10.18;;;8.10;;
29686;SDS011;16599;47.078;15.536;2022-07-23T02:45:23;12.70;;;8.90;;
29686;SDS011;16599;47.078;15.536;2022-07-23T02:47:50;13.23;;;9.02;;
29686;SDS011;16599;47.078;15.536;2022-07-23T02:50:17;9.90;;;8.68;;
29686;SDS011;16599;47.078;15.536;2022-07-23T02:52:44;12.77;;;9.15;;
29686;SDS011;16599;47.078;15.536;2022-07-23T02:55:11;11.05;;;9.85;;
29686;SDS011;16599;47.078;15.536;2022-07-23T02:57:38;10.88;;;9.05;;
29686;SDS011;16599;47.078;15.536;2022-07-23T03:00:05;10.05;;;8.50;;
29686;SDS011;16599;47.078;15.536;2022-07-23T03:02:33;10.85;;;8.68;;
29686;SDS011;16599;47.078;15.536;2022-07-23T03:05:00;11.73;;;8.43;;
29686;SDS011;16599;47.078;15.536;2022-07-23T03:07:28;12.10;;;9.40;;
29686;SDS011;16599;47.078;15.536;2022-07-23T03:09:54;12.90;;;8.75;;
29686;SDS011;16599;47.078;15.536;2022-07-23T03:12:21;10.07;;;8.85;;
29686;SDS011;16599;47.078;15.536;2022-07-23T03:14:48;14.15;;;8.70;;
29686;SDS011;16599;47.078;15.536;2022-07-23T03:17:15;12.50;;;8.95;;
29686;SDS011;16599;47.078;15.536;2022-07-23T03:19:42;11.43;;;9.07;;
29686;SDS011;16599;47.078;15.536;2022-07-23T03:22:09;9.23;;;8.32;;
29686;SDS011;16599;47.078;15.536;2022-07-23T03:24:36;11.25;;;8.63;;
29686;SDS011;16599;47.078;15.536;2022-07-23T03:27:22;12.63;;;9.25;;
29686;SDS011;16599;47.078;15.536;2022-07-23T03:29:51;12.48;;;8.25;;
29686;SDS011;16599;47.078;15.536;2022-07-23T03:32:20;11.88;;;9.25;;
29686;SDS011;16599;47.078;15.536;2022-07-23T03:34:47;14.32;;;8.82;;
29686;SDS011;16599;47.078;15.536;2022-07-23T03:37:14;11.80;;;8.52;;
29686;SDS011;16599;47.078;15.536;2022-07-23T03:39:42;14.48;;;8.88;;
29686;SDS011;16599;47.078;15.536;2022-07-23T03:42:09;11.70;;;9.27;;
29686;SDS011;16599;47.078;15.536;2022-07-23T03:44:36;11.10;;;9.00;;
29686;SDS011;16599;47.078;15.536;2022-07-23T03:47:04;13.13;;;8.85;;
29686;SDS011;16599;47.078;15.536;2022-07-23T03:49:31;13.10;;;8.52;;
29686;SDS011;16599;47.078;15.536;2022-07-23T03:51:59;11.55;;;8.23;;
29686;SDS011;16599;47.078;15.536;2022-07-23T03:54:26;9.43;;;8.05;;
29686;SDS011;16599;47.078;15.536;2022-07-23T03:56:53;11.88;;;8.55;;
29686;SDS011;16599;47.078;15.536;2022-07-23T03:59:20;9.38;;;8.38;;
29686;SDS011;16599;47.078;15.536;2022-07-23T04:01:49;11.95;;;8.57;;
29686;SDS011;16599;47.078;15.536;2022-07-23T04:04:17;10.43;;;8.85;;
29686;SDS011;16599;47.078;15.536;2022-07-23T04:06:43;11.93;;;8.00;;
29686;SDS011;16599;47.078;15.536;2022-07-23T04:09:10;15.70;;;8.75;;
29686;SDS011;16599;47.078;15.536;2022-07-23T04:11:37;11.55;;;8.90;;
29686;SDS011;16599;47.078;15.536;2022-07-23T04:14:04;12.52;;;8.60;;
29686;SDS011;16599;47.078;15.536;2022-07-23T04:16:31;10.70;;;8.80;;
29686;SDS011;16599;47.078;15.536;2022-07-23T04:18:58;11.68;;;8.52;;
29686;SDS011;16599;47.078;15.536;2022-07-23T04:21:25;12.85;;;8.95;;
29686;SDS011;16599;47.078;15.536;2022-07-23T04:23:52;10.90;;;8.77;;
29686;SDS011;16599;47.078;15.536;2022-07-23T04:26:19;11.23;;;9.32;;
29686;SDS011;16599;47.078;15.536;2022-07-23T04:28:47;13.63;;;9.32;;
29686;SDS011;16599;47.078;15.536;2022-07-23T04:31:14;9.32;;;8.32;;
29686;SDS011;16599;47.078;15.536;2022-07-23T04:33:41;11.82;;;8.88;;
29686;SDS011;16599;47.078;15.536;2022-07-23T04:36:08;10.40;;;8.80;;
29686;SDS011;16599;47.078;15.536;2022-07-23T04:38:35;11.02;;;9.00;;
29686;SDS011;16599;47.078;15.536;2022-07-23T04:41:01;13.00;;;8.73;;
29686;SDS011;16599;47.078;15.536;2022-07-23T04:43:28;11.63;;;9.40;;
29686;SDS011;16599;47.078;15.536;2022-07-23T04:45:55;10.70;;;9.00;;
29686;SDS011;16599;47.078;15.536;2022-07-23T04:48:22;10.77;;;8.82;;
29686;SDS011;16599;47.078;15.536;2022-07-23T04:50:49;9.55;;;8.55;;
29686;SDS011;16599;47.078;15.536;2022-07-23T04:53:16;11.63;;;9.65;;
29686;SDS011;16599;47.078;15.536;2022-07-23T04:55:44;13.18;;;8.90;;
29686;SDS011;16599;47.078;15.536;2022-07-23T04:58:11;12.00;;;8.70;;
29686;SDS011;16599;47.078;15.536;2022-07-23T05:00:38;10.00;;;8.50;;
29686;SDS011;16599;47.078;15.536;2022-07-23T05:03:05;10.10;;;8.30;;
29686;SDS011;16599;47.078;15.536;2022-07-23T05:05:32;8.70;;;7.80;;
29686;SDS011;16599;47.078;15.536;2022-07-23T05:07:59;11.73;;;8.60;;
29686;SDS011;16599;47.078;15.536;2022-07-23T05:10:26;11.98;;;8.57;;
29686;SDS011;16599;47.078;15.536;2022-07-23T05:12:53;11.25;;;7.97;;
29686;SDS011;16599;47.078;15.536;2022-07-23T05:15:19;11.15;;;7.65;;
29686;SDS011;16599;47.078;15.536;2022-07-23T05:17:46;10.82;;;8.38;;
29686;SDS011;16599;47.078;15.536;2022-07-23T05:20:13;13.35;;;7.80;;
29686;SDS011;16599;47.078;15.536;2022-07-23T05:22:40;11.38;;;8.68;;
29686;SDS011;16599;47.078;15.536;2022-07-23T05:25:07;9.00;;;8.10;;
29686;SDS011;16599;47.078;15.536;2022-07-23T05:27:34;11.88;;;8.63;;
29686;SDS011;16599;47.078;15.536;2022-07-23T05:30:01;10.45;;;8.20;;
29686;SDS011;16599;47.078;15.536;2022-07-23T05:32:31;9.65;;;8.60;;
29686;SDS011;16599;47.078;15.536;2022-07-23T05:34:58;10.35;;;8.77;;
29686;SDS011;16599;47.078;15.536;2022-07-23T05:37:25;9.45;;;8.55;;
29686;SDS011;16599;47.078;15.536;2022-07-23T05:39:52;15.43;;;9.77;;
29686;SDS011;16599;47.078;15.536;2022-07-23T05:42:19;11.85;;;10.20;;
29686;SDS011;16599;47.078;15.536;2022-07-23T05:44:46;14.13;;;10.95;;
29686;SDS011;16599;47.078;15.536;2022-07-23T05:47:13;12.98;;;11.10;;
29686;SDS011;16599;47.078;15.536;2022-07-23T05:49:39;14.95;;;12.60;;
29686;SDS011;16599;47.078;15.536;2022-07-23T05:52:06;16.80;;;13.07;;
29686;SDS011;16599;47.078;15.536;2022-07-23T05:54:34;14.43;;;12.52;;
29686;SDS011;16599;47.078;15.536;2022-07-23T05:57:02;16.58;;;13.82;;
29686;SDS011;16599;47.078;15.536;2022-07-23T05:59:30;18.40;;;12.90;;
29686;SDS011;16599;47.078;15.536;2022-07-23T06:01:57;19.50;;;13.88;;
29686;SDS011;16599;47.078;15.536;2022-07-23T06:04:24;16.83;;;13.85;;
29686;SDS011;16599;47.078;15.536;2022-07-23T06:06:51;15.82;;;13.57;;
29686;SDS011;16599;47.078;15.536;2022-07-23T06:09:18;19.40;;;13.55;;
29686;SDS011;16599;47.078;15.536;2022-07-23T06:11:45;17.80;;;13.93;;
29686;SDS011;16599;47.078;15.536;2022-07-23T06:14:12;17.10;;;13.73;;
29686;SDS011;16599;47.078;15.536;2022-07-23T06:16:39;17.25;;;13.75;;
29686;SDS011;16599;47.078;15.536;2022-07-23T06:19:05;19.45;;;14.20;;
29686;SDS011;16599;47.078;15.536;2022-07-23T06:21:32;18.40;;;13.82;;
29686;SDS011;16599;47.078;15.536;2022-07-23T06:24:14;22.35;;;13.77;;
29686;SDS011;16599;47.078;15.536;2022-07-23T06:26:41;16.10;;;13.85;;
29686;SDS011;16599;47.078;15.536;2022-07-23T06:29:08;18.23;;;13.57;;
29686;SDS011;16599;47.078;15.536;2022-07-23T06:31:35;17.40;;;13.48;;
29686;SDS011;16599;47.078;15.536;2022-07-23T06:34:02;18.23;;;13.77;;
29686;SDS011;16599;47.078;15.536;2022-07-23T06:36:29;20.08;;;13.15;;
29686;SDS011;16599;47.078;15.536;2022-07-23T06:38:56;19.15;;;12.82;;
29686;SDS011;16599;47.078;15.536;2022-07-23T06:41:23;20.73;;;13.07;;
29686;SDS011;16599;47.078;15.536;2022-07-23T06:43:50;19.60;;;13.30;;
29686;SDS011;16599;47.078;15.536;2022-07-23T06:46:17;15.75;;;13.23;;
29686;SDS011;16599;47.078;15.536;2022-07-23T06:48:44;18.17;;;12.82;;
29686;SDS011;16599;47.078;15.536;2022-07-23T06:51:11;16.10;;;12.70;;
29686;SDS011;16599;47.078;15.536;2022-07-23T06:53:37;15.48;;;13.73;;
29686;SDS011;16599;47.078;15.536;2022-07-23T06:56:04;15.25;;;13.35;;
29686;SDS011;16599;47.078;15.536;2022-07-23T06:58:31;15.48;;;13.25;;
29686;SDS011;16599;47.078;15.536;2022-07-23T07:00:58;15.10;;;12.68;;
29686;SDS011;16599;47.078;15.536;2022-07-23T07:03:25;17.75;;;12.68;;
29686;SDS011;16599;47.078;15.536;2022-07-23T07:05:52;16.90;;;12.73;;
29686;SDS011;16599;47.078;15.536;2022-07-23T07:08:19;17.38;;;12.48;;
29686;SDS011;16599;47.078;15.536;2022-07-23T07:10:46;15.35;;;12.88;;
29686;SDS011;16599;47.078;15.536;2022-07-23T07:13:13;16.95;;;13.13;;
29686;SDS011;16599;47.078;15.536;2022-07-23T07:15:40;19.77;;;12.65;;
29686;SDS011;16599;47.078;15.536;2022-07-23T07:18:07;16.48;;;12.85;;
29686;SDS011;16599;47.078;15.536;2022-07-23T07:20:34;17.98;;;13.18;;
29686;SDS011;16599;47.078;15.536;2022-07-23T07:23:01;14.52;;;12.77;;
29686;SDS011;16599;47.078;15.536;2022-07-23T07:25:28;18.77;;;12.85;;
29686;SDS011;16599;47.078;15.536;2022-07-23T07:27:55;14.05;;;12.18;;
29686;SDS011;16599;47.078;15.536;2022-07-23T07:30:22;17.02;;;12.98;;
29686;SDS011;16599;47.078;15.536;2022-07-23T07:32:49;15.00;;;13.20;;
29686;SDS011;16599;47.078;15.536;2022-07-23T07:35:21;13.73;;;12.23;;
29686;SDS011;16599;47.078;15.536;2022-07-23T07:37:48;18.13;;;13.05;;
29686;SDS011;16599;47.078;15.536;2022-07-23T07:40:15;14.75;;;12.05;;
29686;SDS011;16599;47.078;15.536;2022-07-23T07:42:50;16.02;;;12.30;;
29686;SDS011;16599;47.078;15.536;2022-07-23T07:45:19;16.65;;;12.95;;
29686;SDS011;16599;47.078;15.536;2022-07-23T07:47:47;17.92;;;12.70;;
29686;SDS011;16599;47.078;15.536;2022-07-23T07:50:14;20.38;;;12.40;;
29686;SDS011;16599;47.078;15.536;2022-07-23T07:52:41;16.38;;;12.93;;
29686;SDS011;16599;47.078;15.536;2022-07-23T07:55:09;14.00;;;11.98;;
29686;SDS011;16599;47.078;15.536;2022-07-23T07:57:36;13.38;;;11.98;;
29686;SDS011;16599;47.078;15.536;2022-07-23T08:00:04;15.88;;;12.80;;
29686;SDS011;16599;47.078;15.536;2022-07-23T08:02:40;14.70;;;11.45;;
29686;SDS011;16599;47.078;15.536;2022-07-23T08:05:08;13.27;;;11.10;;
29686;SDS011;16599;47.078;15.536;2022-07-23T08:07:35;13.80;;;12.00;;
29686;SDS011;16599;47.078;15.536;2022-07-23T08:10:03;14.93;;;11.15;;
29686;SDS011;16599;47.078;15.536;2022-07-23T08:12:37;18.15;;;10.80;;
29686;SDS011;16599;47.078;15.536;2022-07-23T08:15:08;17.27;;;10.85;;
29686;SDS011;16599;47.078;15.536;2022-07-23T08:17:39;13.88;;;11.23;;
29686;SDS011;16599;47.078;15.536;2022-07-23T08:20:08;12.73;;;10.80;;
29686;SDS011;16599;47.078;15.536;2022-07-23T08:22:43;14.07;;;9.60;;
29686;SDS011;16599;47.078;15.536;2022-07-23T08:25:19;13.10;;;10.68;;
29686;SDS011;16599;47.078;15.536;2022-07-23T08:27:54;12.90;;;10.77;;
29686;SDS011;16599;47.078;15.536;2022-07-23T08:30:22;12.65;;;10.32;;
29686;SDS011;16599;47.078;15.536;2022-07-23T08:32:51;15.10;;;10.07;;
29686;SDS011;16599;47.078;15.536;2022-07-23T08:35:23;11.55;;;9.73;;
29686;SDS011;16599;47.078;15.536;2022-07-23T08:37:52;12.35;;;10.07;;
29686;SDS011;16599;47.078;15.536;2022-07-23T08:40:19;15.75;;;10.23;;
29686;SDS011;16599;47.078;15.536;2022-07-23T08:42:47;13.55;;;9.80;;
29686;SDS011;16599;47.078;15.536;2022-07-23T08:45:16;10.73;;;9.63;;
29686;SDS011;16599;47.078;15.536;2022-07-23T08:47:45;10.35;;;9.30;;
29686;SDS011;16599;47.078;15.536;2022-07-23T08:50:19;16.00;;;10.68;;
29686;SDS011;16599;47.078;15.536;2022-07-23T08:52:48;12.27;;;8.95;;
29686;SDS011;16599;47.078;15.536;2022-07-23T08:55:20;13.25;;;8.90;;
29686;SDS011;16599;47.078;15.536;2022-07-23T08:57:49;11.40;;;9.35;;
29686;SDS011;16599;47.078;15.536;2022-07-23T09:00:17;14.77;;;8.88;;
29686;SDS011;16599;47.078;15.536;2022-07-23T09:02:46;11.27;;;8.23;;
29686;SDS011;16599;47.078;15.536;2022-07-23T09:05:14;15.95;;;8.60;;
29686;SDS011;16599;47.078;15.536;2022-07-23T09:10:43;9.63;;;8.02;;
29686;SDS011;16599;47.078;15.536;2022-07-23T09:13:31;11.95;;;8.23;;
29686;SDS011;16599;47.078;15.536;2022-07-23T09:16:26;11.30;;;8.70;;
29686;SDS011;16599;47.078;15.536;2022-07-23T09:18:56;11.43;;;8.30;;
29686;SDS011;16599;47.078;15.536;2022-07-23T09:21:33;12.93;;;8.27;;
29686;SDS011;16599;47.078;15.536;2022-07-23T09:24:05;12.25;;;9.13;;
29686;SDS011;16599;47.078;15.536;2022-07-23T09:26:43;10.23;;;8.52;;
29686;SDS011;16599;47.078;15.536;2022-07-23T09:36:52;15.38;;;8.65;;
29686;SDS011;16599;47.078;15.536;2022-07-23T09:39:27;14.10;;;8.23;;
29686;SDS011;16599;47.078;15.536;2022-07-23T09:42:15;12.70;;;8.57;;
29686;SDS011;16599;47.078;15.536;2022-07-23T09:44:50;10.27;;;8.45;;
29686;SDS011;16599;47.078;15.536;2022-07-23T09:47:19;8.57;;;7.03;;
29686;SDS011;16599;47.078;15.536;2022-07-23T09:52:40;9.98;;;8.40;;
29686;SDS011;16599;47.078;15.536;2022-07-23T09:55:09;18.40;;;8.13;;
29686;SDS011;16599;47.078;15.536;2022-07-23T09:57:37;8.95;;;7.68;;
29686;SDS011;16599;47.078;15.536;2022-07-23T10:00:07;10.95;;;7.47;;
29686;SDS011;16599;47.078;15.536;2022-07-23T10:02:37;12.37;;;6.93;;
29686;SDS011;16599;47.078;15.536;2022-07-23T10:05:05;11.27;;;7.53;;
29686;SDS011;16599;47.078;15.536;2022-07-23T10:07:37;12.20;;;7.43;;
29686;SDS011;16599;47.078;15.536;2022-07-23T10:10:06;12.20;;;7.78;;
29686;SDS011;16599;47.078;15.536;2022-07-23T10:12:33;9.35;;;7.68;;
29686;SDS011;16599;47.078;15.536;2022-07-23T10:15:18;13.32;;;7.75;;
29686;SDS011;16599;47.078;15.536;2022-07-23T10:17:45;8.18;;;7.30;;
29686;SDS011;16599;47.078;15.536;2022-07-23T10:20:14;11.95;;;7.43;;
29686;SDS011;16599;47.078;15.536;2022-07-23T10:22:50;7.85;;;6.80;;
29686;SDS011;16599;47.078;15.536;2022-07-23T10:25:41;9.25;;;7.93;;
29686;SDS011;16599;47.078;15.536;2022-07-23T10:34:37;11.68;;;7.88;;
29686;SDS011;16599;47.078;15.536;2022-07-23T10:37:39;8.52;;;7.60;;
29686;SDS011;16599;47.078;15.536;2022-07-23T10:42:37;11.25;;;7.82;;
29686;SDS011;16599;47.078;15.536;2022-07-23T10:50:45;10.30;;;7.55;;
29686;SDS011;16599;47.078;15.536;2022-07-23T10:59:22;8.48;;;7.53;;
29686;SDS011;16599;47.078;15.536;2022-07-23T11:01:49;10.68;;;8.05;;
29686;SDS011;16599;47.078;15.536;2022-07-23T11:04:17;11.27;;;8.35;;
29686;SDS011;16599;47.078;15.536;2022-07-23T11:12:31;11.77;;;8.60;;
29686;SDS011;16599;47.078;15.536;2022-07-23T11:17:28;11.05;;;8.70;;
29686;SDS011;16599;47.078;15.536;2022-07-23T11:22:39;10.93;;;8.15;;
29686;SDS011;16599;47.078;15.536;2022-07-23T11:25:34;9.75;;;7.90;;
29686;SDS011;16599;47.078;15.536;2022-07-23T11:28:22;9.50;;;8.20;;
29686;SDS011;16599;47.078;15.536;2022-07-23T11:30:52;9.32;;;8.13;;
29686;SDS011;16599;47.078;15.536;2022-07-23T11:33:19;10.32;;;8.07;;
29686;SDS011;16599;47.078;15.536;2022-07-23T11:35:49;8.55;;;7.75;;
29686;SDS011;16599;47.078;15.536;2022-07-23T11:38:28;9.70;;;8.23;;
29686;SDS011;16599;47.078;15.536;2022-07-23T11:40:58;9.60;;;8.55;;
29686;SDS011;16599;47.078;15.536;2022-07-23T11:43:25;8.95;;;8.05;;
29686;SDS011;16599;47.078;15.536;2022-07-23T11:45:53;8.90;;;7.60;;
29686;SDS011;16599;47.078;15.536;2022-07-23T11:48:25;9.95;;;8.10;;
29686;SDS011;16599;47.078;15.536;2022-07-23T11:50:54;10.13;;;8.48;;
29686;SDS011;16599;47.078;15.536;2022-07-23T11:55:53;9.43;;;8.43;;
29686;SDS011;16599;47.078;15.536;2022-07-23T11:58:21;10.93;;;9.68;;
29686;SDS011;16599;47.078;15.536;2022-07-23T12:00:48;13.23;;;8.85;;
29686;SDS011;16599;47.078;15.536;2022-07-23T12:03:17;10.48;;;8.25;;
29686;SDS011;16599;47.078;15.536;2022-07-23T12:05:44;11.18;;;8.25;;
29686;SDS011;16599;47.078;15.536;2022-07-23T12:08:10;13.95;;;8.68;;
29686;SDS011;16599;47.078;15.536;2022-07-23T12:13:13;11.70;;;8.30;;
29686;SDS011;16599;47.078;15.536;2022-07-23T12:15:45;9.70;;;8.68;;
29686;SDS011;16599;47.078;15.536;2022-07-23T12:18:16;9.63;;;8.63;;
29686;SDS011;16599;47.078;15.536;2022-07-23T12:20:48;9.77;;;7.95;;
29686;SDS011;16599;47.078;15.536;2022-07-23T12:23:21;9.27;;;8.23;;
29686;SDS011;16599;47.078;15.536;2022-07-23T12:25:49;8.90;;;8.00;;
29686;SDS011;16599;47.078;15.536;2022-07-23T12:28:19;10.07;;;8.35;;
29686;SDS011;16599;47.078;15.536;2022-07-23T12:30:52;11.50;;;8.50;;
29686;SDS011;16599;47.078;15.536;2022-07-23T12:33:27;10.75;;;8.32;;
29686;SDS011;16599;47.078;15.536;2022-07-23T12:35:59;10.93;;;8.80;;
29686;SDS011;16599;47.078;15.536;2022-07-23T12:38:36;9.23;;;8.23;;
29686;SDS011;16599;47.078;15.536;2022-07-23T12:41:10;9.25;;;7.85;;
29686;SDS011;16599;47.078;15.536;2022-07-23T12:43:37;9.00;;;7.90;;
29686;SDS011;16599;47.078;15.536;2022-07-23T12:48:52;9.48;;;7.80;;
29686;SDS011;16599;47.078;15.536;2022-07-23T12:51:27;8.20;;;7.47;;
29686;SDS011;16599;47.078;15.536;2022-07-23T12:56:36;9.75;;;8.43;;
29686;SDS011;16599;47.078;15.536;2022-07-23T12:59:06;11.18;;;7.90;;
29686;SDS011;16599;47.078;15.536;2022-07-23T13:01:38;11.13;;;7.90;;
29686;SDS011;16599;47.078;15.536;2022-07-23T13:04:12;12.13;;;8.13;;
29686;SDS011;16599;47.078;15.536;2022-07-23T13:06:48;8.77;;;7.28;;
29686;SDS011;16599;47.078;15.536;2022-07-23T13:09:20;8.98;;;8.07;;
29686;SDS011;16599;47.078;15.536;2022-07-23T13:11:50;8.38;;;7.55;;
29686;SDS011;16599;47.078;15.536;2022-07-23T13:14:22;9.85;;;8.07;;
29686;SDS011;16599;47.078;15.536;2022-07-23T13:16:52;7.47;;;6.77;;
29686;SDS011;16599;47.078;15.536;2022-07-23T13:19:22;11.02;;;8.07;;
29686;SDS011;16599;47.078;15.536;2022-07-23T13:21:51;8.70;;;7.85;;
29686;SDS011;16599;47.078;15.536;2022-07-23T13:24:18;8.52;;;7.45;;
29686;SDS011;16599;47.078;15.536;2022-07-23T13:26:46;9.30;;;7.82;;
29686;SDS011;16599;47.078;15.536;2022-07-23T13:29:16;8.32;;;7.35;;
29686;SDS011;16599;47.078;15.536;2022-07-23T13:31:45;13.30;;;7.43;;
29686;SDS011;16599;47.078;15.536;2022-07-23T13:34:14;8.48;;;7.68;;
29686;SDS011;16599;47.078;15.536;2022-07-23T13:36:41;8.65;;;7.68;;
29686;SDS011;16599;47.078;15.536;2022-07-23T13:39:10;8.15;;;7.13;;
29686;SDS011;16599;47.078;15.536;2022-07-23T13:41:37;8.02;;;7.22;;
29686;SDS011;16599;47.078;15.536;2022-07-23T13:44:05;8.57;;;7.75;;
29686;SDS011;16599;47.078;15.536;2022-07-23T13:46:34;10.35;;;7.32;;
29686;SDS011;16599;47.078;15.536;2022-07-23T13:49:01;8.57;;;7.63;;
29686;SDS011;16599;47.078;15.536;2022-07-23T13:51:32;7.72;;;6.93;;
29686;SDS011;16599;47.078;15.536;2022-07-23T13:53:58;7.82;;;7.03;;
29686;SDS011;16599;47.078;15.536;2022-07-23T13:56:25;11.68;;;7.43;;
29686;SDS011;16599;47.078;15.536;2022-07-23T13:58:52;8.32;;;7.00;;
29686;SDS011;16599;47.078;15.536;2022-07-23T14:01:19;7.82;;;7.13;;
29686;SDS011;16599;47.078;15.536;2022-07-23T14:03:46;7.65;;;6.88;;
29686;SDS011;16599;47.078;15.536;2022-07-23T14:06:13;8.07;;;7.05;;
29686;SDS011;16599;47.078;15.536;2022-07-23T14:08:42;8.52;;;7.63;;
29686;SDS011;16599;47.078;15.536;2022-07-23T14:11:10;8.65;;;7.68;;
29686;SDS011;16599;47.078;15.536;2022-07-23T14:13:38;8.32;;;7.22;;
29686;SDS011;16599;47.078;15.536;2022-07-23T14:16:06;7.93;;;6.95;;
29686;SDS011;16599;47.078;15.536;2022-07-23T14:18:33;9.43;;;7.55;;
29686;SDS011;16599;47.078;15.536;2022-07-23T14:21:01;8.30;;;7.50;;
29686;SDS011;16599;47.078;15.536;2022-07-23T14:23:29;8.95;;;7.40;;
29686;SDS011;16599;47.078;15.536;2022-07-23T14:25:56;8.23;;;7.20;;
29686;SDS011;16599;47.078;15.536;2022-07-23T14:28:23;7.68;;;6.90;;
29686;SDS011;16599;47.078;15.536;2022-07-23T14:30:50;8.05;;;6.80;;
29686;SDS011;16599;47.078;15.536;2022-07-23T14:33:18;7.22;;;6.53;;
29686;SDS011;16599;47.078;15.536;2022-07-23T14:35:46;6.93;;;6.22;;
29686;SDS011;16599;47.078;15.536;2022-07-23T14:38:13;7.85;;;6.70;;
29686;SDS011;16599;47.078;15.536;2022-07-23T14:40:40;7.82;;;6.25;;
29686;SDS011;16599;47.078;15.536;2022-07-23T14:43:10;7.28;;;6.57;;
29686;SDS011;16599;47.078;15.536;2022-07-23T14:45:37;7.35;;;6.63;;
29686;SDS011;16599;47.078;15.536;2022-07-23T14:48:05;7.80;;;7.00;;
29686;SDS011;16599;47.078;15.536;2022-07-23T14:50:33;7.40;;;6.70;;
29686;SDS011;16599;47.078;15.536;2022-07-23T14:53:00;7.00;;;6.30;;
29686;SDS011;16599;47.078;15.536;2022-07-23T14:55:27;7.10;;;6.38;;
29686;SDS011;16599;47.078;15.536;2022-07-23T14:57:54;6.95;;;6.35;;
29686;SDS011;16599;47.078;15.536;2022-07-23T15:00:21;7.07;;;6.38;;
29686;SDS011;16599;47.078;15.536;2022-07-23T15:02:49;8.50;;;7.10;;
29686;SDS011;16599;47.078;15.536;2022-07-23T15:05:20;9.98;;;6.78;;
29686;SDS011;16599;47.078;15.536;2022-07-23T15:07:47;7.20;;;6.35;;
29686;SDS011;16599;47.078;15.536;2022-07-23T15:10:15;6.63;;;6.00;;
29686;SDS011;16599;47.078;15.536;2022-07-23T15:12:45;7.57;;;6.78;;
29686;SDS011;16599;47.078;15.536;2022-07-23T15:15:12;8.32;;;7.00;;
29686;SDS011;16599;47.078;15.536;2022-07-23T15:17:41;11.27;;;6.10;;
29686;SDS011;16599;47.078;15.536;2022-07-23T15:20:08;12.43;;;6.50;;
29686;SDS011;16599;47.078;15.536;2022-07-23T15:22:36;9.65;;;6.53;;
29686;SDS011;16599;47.078;15.536;2022-07-23T15:25:03;11.27;;;6.10;;
29686;SDS011;16599;47.078;15.536;2022-07-23T15:27:30;7.38;;;6.68;;